Time;durP1;ratioP1;P1;durP2;ratioP2;P2;SDS_P1;SDS_P2;PMS_P1;PMS_P2;Temp;Humidity;BMP_temperature;BMP_pressure;BME280_temperature;BME280_humidity;BME280_pressure;Samples;Min_cycle;Max_cycle;Signal;HPM_P1;HPM_P2
2021/09/22 00:00:27;;;;;;;64.78;46.45;;;;;;;8.10;100.00;99710.31;2042586;29;20661;-75
2021/09/22 00:01:30;;;;;;;62.17;46.83;;;;;;;8.11;100.00;99710.06;2050570;29;20558;-75
2021/09/22 00:02:31;;;;;;;62.58;45.92;;;;;;;8.13;100.00;99707.13;2059047;28;20198;-75
2021/09/22 00:03:33;;;;;;;65.87;47.10;;;;;;;8.13;100.00;99710.59;2058981;28;20185;-75
2021/09/22 00:04:33;;;;;;;62.13;45.53;;;;;;;8.13;100.00;99707.13;2059138;28;20194;-75
2021/09/22 00:05:35;;;;;;;66.57;44.07;;;;;;;8.12;100.00;99703.66;2059133;28;20727;-75
2021/09/22 00:06:36;;;;;;;66.60;45.50;;;;;;;8.09;100.00;99696.25;2050380;29;20206;-75
2021/09/22 00:07:38;;;;;;;68.70;43.90;;;;;;;8.11;100.00;99702.06;2050591;29;20197;-75
2021/09/22 00:08:41;;;;;;;69.35;46.42;;;;;;;8.08;100.00;99696.47;2058977;28;20664;-75
2021/09/22 00:09:46;;;;;;;63.08;45.13;;;;;;;8.10;100.00;99692.50;2058947;28;20542;-75
2021/09/22 00:10:47;;;;;;;68.03;46.17;;;;;;;8.11;100.00;99696.75;2050265;29;20210;-74
2021/09/22 00:11:49;;;;;;;71.43;46.53;;;;;;;8.10;100.00;99691.72;2050394;29;20765;-75
2021/09/22 00:12:50;;;;;;;65.72;45.72;;;;;;;8.09;100.00;99692.78;2050374;29;20202;-75
2021/09/22 00:13:51;;;;;;;67.45;44.75;;;;;;;8.08;100.00;99685.84;2050551;28;20182;-75
2021/09/22 00:14:55;;;;;;;64.60;44.60;;;;;;;8.06;100.00;99685.31;2049969;29;20198;-75
2021/09/22 00:15:57;;;;;;;67.73;44.63;;;;;;;8.06;100.00;99683.47;2050389;29;20186;-75
2021/09/22 00:17:00;;;;;;;68.55;45.80;;;;;;;8.13;100.00;99691.97;2059000;28;20197;-75
2021/09/22 00:18:02;;;;;;;63.40;45.22;;;;;;;8.10;100.00;99687.19;2050244;29;20266;-75
2021/09/22 00:19:03;;;;;;;65.00;46.83;;;;;;;8.09;100.00;99687.47;2050520;28;20797;-75
2021/09/22 00:20:06;;;;;;;62.55;43.78;;;;;;;8.07;100.00;99692.22;2050367;29;20195;-75
2021/09/22 00:21:07;;;;;;;64.80;44.70;;;;;;;8.09;100.00;99692.78;2050668;28;20197;-75
2021/09/22 00:22:08;;;;;;;67.40;46.30;;;;;;;8.09;100.00;99690.13;2049920;29;20230;-75
2021/09/22 00:23:10;;;;;;;65.30;46.00;;;;;;;8.08;100.00;99691.16;2050406;28;20293;-74
2021/09/22 00:24:15;;;;;;;70.75;46.63;;;;;;;8.08;100.00;99677.88;2058911;28;20273;-74
2021/09/22 00:25:17;;;;;;;71.63;47.17;;;;;;;8.08;100.00;99685.84;2059027;28;20277;-75
2021/09/22 00:26:18;;;;;;;78.50;47.65;;;;;;;8.09;100.00;99684.81;2049491;29;20206;-75
2021/09/22 00:27:19;;;;;;;73.70;46.42;;;;;;;8.09;100.00;99690.91;2050442;28;20344;-75
2021/09/22 00:28:21;;;;;;;68.67;45.73;;;;;;;8.10;100.00;99681.09;2058899;28;20198;-75
2021/09/22 00:29:23;;;;;;;73.35;46.80;;;;;;;8.09;100.00;99685.59;2049830;29;20473;-75
2021/09/22 00:30:25;;;;;;;76.15;46.53;;;;;;;8.09;100.00;99679.50;2050330;28;20321;-75
2021/09/22 00:31:27;;;;;;;74.25;48.50;;;;;;;8.09;100.00;99682.16;2050217;29;20198;-75
2021/09/22 00:32:29;;;;;;;74.85;48.03;;;;;;;8.10;100.00;99678.44;2042440;29;20302;-74
2021/09/22 00:33:30;;;;;;;71.78;47.30;;;;;;;8.10;100.00;99673.13;2050362;28;20198;-74
2021/09/22 00:34:31;;;;;;;79.60;48.13;;;;;;;8.09;100.00;99671.53;2058802;28;20737;-75
2021/09/22 00:35:33;;;;;;;75.78;49.20;;;;;;;8.08;100.00;99678.69;2050032;28;20361;-75
2021/09/22 00:36:35;;;;;;;78.20;47.03;;;;;;;8.08;100.00;99678.69;2050135;28;20218;-75
2021/09/22 00:37:37;;;;;;;74.03;46.63;;;;;;;8.11;100.00;99680.03;2050145;29;20203;-75
2021/09/22 00:38:39;;;;;;;72.53;45.58;;;;;;;8.10;100.00;99681.88;2050234;29;20199;-75
2021/09/22 00:39:41;;;;;;;79.63;48.25;;;;;;;8.10;100.00;99676.56;2050160;29;20206;-75
2021/09/22 00:40:43;;;;;;;73.88;46.95;;;;;;;8.11;100.00;99682.69;2042254;29;20594;-75
2021/09/22 00:41:44;;;;;;;74.18;47.85;;;;;;;8.10;100.00;99675.78;2050480;28;20205;-75
2021/09/22 00:42:45;;;;;;;78.60;48.30;;;;;;;8.10;100.00;99673.13;2058754;28;20193;-75
2021/09/22 00:43:47;;;;;;;75.57;48.28;;;;;;;8.09;100.00;99680.28;2058758;28;20913;-75
2021/09/22 00:44:51;;;;;;;77.30;48.95;;;;;;;8.08;100.00;99670.72;2058786;28;20181;-75
2021/09/22 00:45:53;;;;;;;78.40;47.88;;;;;;;8.08;100.00;99678.69;2058729;28;20201;-74
2021/09/22 00:46:54;;;;;;;71.22;46.05;;;;;;;8.12;100.00;99668.31;2058701;28;20232;-74
2021/09/22 00:47:58;;;;;;;76.83;47.57;;;;;;;8.11;100.00;99666.72;2049809;29;20206;-74
2021/09/22 00:49:07;;;;;;;71.88;45.53;;;;;;;8.09;100.00;99653.72;2050150;29;20202;-75
2021/09/22 00:50:14;;;;;;;75.03;47.17;;;;;;;8.09;100.00;99656.38;2042837;29;20214;-74
2021/09/22 00:51:17;;;;;;;71.00;46.72;;;;;;;8.09;100.00;99664.34;2042199;29;20351;-75
2021/09/22 00:52:20;;;;;;;74.60;47.55;;;;;;;8.09;100.00;99653.72;2050342;28;20229;-75
2021/09/22 00:53:21;;;;;;;71.47;46.60;;;;;;;8.10;100.00;99663.28;2050051;29;20643;-75
2021/09/22 00:54:24;;;;;;;72.07;47.75;;;;;;;8.09;100.00;99653.72;2050088;29;20198;-75
2021/09/22 00:55:26;;;;;;;68.80;47.70;;;;;;;8.08;100.00;99657.44;2042275;29;20731;-75
2021/09/22 00:56:28;;;;;;;79.65;48.05;;;;;;;8.07;100.00;99653.16;2042335;29;20563;-75
2021/09/22 00:57:30;;;;;;;73.72;47.78;;;;;;;8.07;100.00;99644.38;2042391;29;20669;-75
2021/09/22 00:58:34;;;;;;;76.30;48.00;;;;;;;8.07;100.00;99650.50;2050107;28;20217;-75
2021/09/22 00:59:35;;;;;;;68.10;46.95;;;;;;;8.07;100.00;99645.19;2049786;29;20277;-75
2021/09/22 01:00:38;;;;;;;75.13;45.77;;;;;;;8.08;100.00;99646.81;2050128;28;20191;-75
2021/09/22 01:01:39;;;;;;;72.55;45.97;;;;;;;8.07;100.00;99639.06;2058548;28;20202;-75
2021/09/22 01:02:42;;;;;;;75.32;47.42;;;;;;;8.10;100.00;99643.88;2050140;29;20198;-75
2021/09/22 01:03:44;;;;;;;78.10;47.50;;;;;;;8.10;100.00;99644.69;2042102;29;20206;-75
2021/09/22 01:04:46;;;;;;;75.10;47.50;;;;;;;8.07;100.00;99641.72;2050068;28;20201;-75
2021/09/22 01:05:49;;;;;;;64.72;45.10;;;;;;;8.09;100.00;99644.94;2049573;29;20206;-75
2021/09/22 01:06:50;;;;;;;70.22;46.80;;;;;;;8.09;100.00;99636.97;2050310;28;20234;-75
2021/09/22 01:07:52;;;;;;;78.30;47.03;;;;;;;8.10;100.00;99636.69;2058686;28;20695;-75
2021/09/22 01:08:53;;;;;;;71.60;46.20;;;;;;;8.11;100.00;99632.19;2058590;28;20648;-75
2021/09/22 01:09:55;;;;;;;69.10;44.90;;;;;;;8.09;100.00;99640.44;2058774;28;20519;-74
2021/09/22 01:11:01;;;;;;;68.38;44.55;;;;;;;8.10;100.00;99643.88;2050057;29;20214;-75
2021/09/22 01:12:02;;;;;;;67.40;45.13;;;;;;;8.09;100.00;99639.63;2049523;29;20238;-74
2021/09/22 01:13:04;;;;;;;70.68;44.90;;;;;;;8.10;100.00;99636.69;2050111;28;20186;-74
2021/09/22 01:14:07;;;;;;;71.63;45.17;;;;;;;8.09;100.00;99629.78;2049910;29;20202;-75
2021/09/22 01:15:10;;;;;;;63.72;44.67;;;;;;;8.10;100.00;99627.94;2041909;29;20211;-74
2021/09/22 01:16:12;;;;;;;68.13;44.97;;;;;;;8.15;100.00;99633.22;2041809;29;20490;-74
2021/09/22 01:17:18;;;;;;;70.20;46.25;;;;;;;8.12;100.00;99631.13;2050010;28;20297;-75
2021/09/22 01:18:22;;;;;;;72.60;46.20;;;;;;;8.11;100.00;99626.88;2049548;29;20198;-75
2021/09/22 01:19:26;;;;;;;67.72;44.53;;;;;;;8.10;100.00;99618.09;2049866;29;20199;-75
2021/09/22 01:20:32;;;;;;;65.38;44.70;;;;;;;8.12;100.00;99621.28;2050216;28;20210;-75
2021/09/22 01:21:35;;;;;;;75.80;48.15;;;;;;;8.10;100.00;99612.00;2049527;29;20292;-75
2021/09/22 01:22:37;;;;;;;67.90;45.67;;;;;;;8.13;100.00;99619.41;2050014;28;20191;-75
2021/09/22 01:23:40;;;;;;;62.60;43.53;;;;;;;8.12;100.00;99615.16;2049802;29;20202;-75
2021/09/22 01:24:44;;;;;;;67.50;44.28;;;;;;;8.13;100.00;99622.06;2049746;29;20281;-75
2021/09/22 01:25:48;;;;;;;61.60;42.60;;;;;;;8.18;100.00;99620.22;2041927;29;20199;-74
2021/09/22 01:26:52;;;;;;;60.50;42.03;;;;;;;8.16;100.00;99618.88;2049767;29;20199;-74
2021/09/22 01:27:56;;;;;;;61.13;43.13;;;;;;;8.16;100.00;99618.88;2050050;28;20687;-75
2021/09/22 01:28:58;;;;;;;63.58;42.55;;;;;;;8.14;100.00;99616.50;2049770;29;20190;-74
2021/09/22 01:29:59;;;;;;;57.60;40.70;;;;;;;8.14;100.00;99616.50;2041884;29;20241;-74
2021/09/22 01:31:05;;;;;;;60.10;41.00;;;;;;;8.14;100.00;99613.03;2049297;29;20318;-75
2021/09/22 01:32:10;;;;;;;59.97;42.17;;;;;;;8.17;100.00;99613.31;2042430;29;20223;-75
2021/09/22 01:33:17;;;;;;;63.80;41.78;;;;;;;8.17;100.00;99612.53;2049754;29;20601;-74
2021/09/22 01:34:32;;;;;;;57.15;42.08;;;;;;;8.15;100.00;99610.09;2052644;28;20202;-75
2021/09/22 01:35:42;;;;;;;67.18;43.15;;;;;;;8.14;100.00;99613.03;2049761;29;20242;-75
2021/09/22 01:36:51;;;;;;;63.08;41.60;;;;;;;8.14;100.00;99607.72;2049924;29;20560;-74
2021/09/22 01:37:52;;;;;;;59.80;42.50;;;;;;;8.14;100.00;99613.03;2041946;29;20203;-75
2021/09/22 01:39:18;;;;;;;57.95;40.55;;;;;;;8.17;100.00;99607.22;2049807;29;20565;-75
2021/09/22 01:40:20;;;;;;;58.90;40.53;;;;;;;8.13;100.00;99601.63;2042007;29;20283;-75
2021/09/22 01:41:23;;;;;;;65.40;41.63;;;;;;;8.12;100.00;99599.22;2049665;29;20194;-75
2021/09/22 01:42:29;;;;;;;56.67;39.97;;;;;;;8.12;100.00;99600.03;2042224;29;20221;-75
2021/09/22 01:43:37;;;;;;;58.08;40.38;;;;;;;8.14;100.00;99597.09;2042164;29;20202;-75
2021/09/22 01:44:38;;;;;;;59.88;41.80;;;;;;;8.12;100.00;99599.22;2050442;28;20246;-75
2021/09/22 01:45:45;;;;;;;55.00;40.33;;;;;;;8.13;100.00;99600.81;2049702;29;20203;-75
2021/09/22 01:46:49;;;;;;;55.95;39.53;;;;;;;8.14;100.00;99597.88;2049585;29;20285;-75
2021/09/22 01:47:50;;;;;;;53.53;40.63;;;;;;;8.17;100.00;99596.56;2041494;29;20207;-75
2021/09/22 01:48:52;;;;;;;59.50;41.60;;;;;;;8.16;100.00;99595.75;2041677;29;20195;-75
2021/09/22 01:49:59;;;;;;;57.15;41.03;;;;;;;8.16;100.00;99600.28;2041718;29;20688;-75
2021/09/22 01:51:04;;;;;;;56.67;40.53;;;;;;;8.14;100.00;99592.56;2049606;28;20241;-75
2021/09/22 01:52:08;;;;;;;57.35;39.83;;;;;;;8.13;100.00;99598.16;2049767;29;20688;-75
2021/09/22 01:53:23;;;;;;;59.80;40.10;;;;;;;8.14;100.00;99589.91;2043379;29;20198;-75
2021/09/22 01:54:25;;;;;;;53.83;37.47;;;;;;;8.13;100.00;99592.84;2041840;29;20289;-75
2021/09/22 01:55:27;;;;;;;52.20;36.55;;;;;;;8.13;100.00;99592.84;2049545;29;20282;-76
2021/09/22 01:56:39;;;;;;;59.03;38.95;;;;;;;8.18;100.00;99590.19;2049714;29;20205;-75
2021/09/22 01:57:41;;;;;;;51.90;39.35;;;;;;;8.14;100.00;99591.78;2049725;29;20557;-75
2021/09/22 01:58:47;;;;;;;50.95;38.00;;;;;;;8.11;100.00;99589.66;2049465;28;20214;-75
2021/09/22 01:59:53;;;;;;;48.55;35.92;;;;;;;8.14;100.00;99584.59;2042225;29;20234;-74
2021/09/22 02:01:20;;;;;;;48.03;37.13;;;;;;;8.12;100.00;99593.91;2053418;28;20193;-75
2021/09/22 02:02:31;;;;;;;49.25;37.35;;;;;;;8.10;100.00;99590.72;2049657;29;20249;-74
2021/09/22 02:03:56;;;;;;;53.72;37.33;;;;;;;8.08;100.00;99582.19;2050274;28;20193;-75
2021/09/22 02:05:27;;;;;;;54.53;38.10;;;;;;;8.14;100.00;99589.91;2053068;28;20202;-74
2021/09/22 02:06:45;;;;;;;55.95;39.55;;;;;;;8.20;100.00;99588.06;2049583;29;20661;-74
2021/09/22 02:07:49;;;;;;;56.60;38.38;;;;;;;8.19;100.00;99586.47;2049545;29;20194;-75
2021/09/22 02:08:55;;;;;;;52.33;38.53;;;;;;;8.22;100.00;99591.25;2042287;29;20290;-74
2021/09/22 02:10:07;;;;;;;54.55;39.40;;;;;;;8.20;100.00;99588.06;2043090;29;20200;-75
2021/09/22 02:11:09;;;;;;;48.10;37.65;;;;;;;8.26;100.00;99583.53;2041512;29;20306;-75
2021/09/22 02:12:14;;;;;;;46.95;36.50;;;;;;;8.24;100.00;99581.13;2049424;29;20618;-75
2021/09/22 02:13:17;;;;;;;44.90;35.70;;;;;;;8.21;100.00;99585.13;2049469;29;20254;-75
2021/09/22 02:14:18;;;;;;;42.83;34.33;;;;;;;8.17;100.00;99581.44;2049903;28;20695;-75
2021/09/22 02:15:26;;;;;;;43.17;34.95;;;;;;;8.18;100.00;99582.22;2049379;29;20256;-75
2021/09/22 02:16:47;;;;;;;35.30;31.50;;;;;;;8.18;100.00;99583.03;2039278;28;20202;-75
2021/09/22 02:17:55;;;;;;;33.45;29.15;;;;;;;8.14;100.00;99578.50;2049630;29;20190;-75
2021/09/22 02:18:58;;;;;;;34.17;30.48;;;;;;;8.17;100.00;99585.94;2041527;29;20194;-75
2021/09/22 02:20:03;;;;;;;33.10;29.58;;;;;;;8.10;100.00;99572.13;2049332;28;20218;-75
2021/09/22 02:21:13;;;;;;;32.75;29.17;;;;;;;8.10;100.00;99574.78;2051046;28;20171;-75
2021/09/22 02:22:14;;;;;;;32.22;28.85;;;;;;;8.09;100.00;99578.50;2049444;29;20210;-75
2021/09/22 02:23:40;;;;;;;30.98;27.83;;;;;;;8.08;100.00;99576.88;2049594;29;20645;-75
2021/09/22 02:24:43;;;;;;;30.70;27.42;;;;;;;8.05;100.00;99572.13;2041825;29;20253;-75
2021/09/22 02:25:46;;;;;;;30.58;27.67;;;;;;;8.06;100.00;99571.06;2049406;29;20201;-75
2021/09/22 02:26:48;;;;;;;30.75;27.70;;;;;;;8.07;100.00;99575.28;2041444;29;20207;-75
2021/09/22 02:27:53;;;;;;;31.25;28.35;;;;;;;8.00;100.00;99570.28;2042078;29;20195;-75
2021/09/22 02:28:56;;;;;;;29.50;26.80;;;;;;;7.99;100.00;99562.53;2049455;29;20293;-74
2021/09/22 02:29:58;;;;;;;28.67;25.98;;;;;;;7.99;100.00;99562.53;2041591;29;20670;-74
2021/09/22 02:30:59;;;;;;;28.58;25.92;;;;;;;7.96;100.00;99573.72;2049610;29;20198;-74
2021/09/22 02:32:04;;;;;;;27.75;25.00;;;;;;;7.94;100.00;99572.13;2041877;29;20202;-74
2021/09/22 02:33:05;;;;;;;25.98;23.67;;;;;;;7.96;100.00;99566.53;2041287;29;20202;-75
2021/09/22 02:34:08;;;;;;;26.58;24.23;;;;;;;7.92;100.00;99565.50;2049332;29;20213;-75
2021/09/22 02:35:10;;;;;;;26.85;24.25;;;;;;;7.88;100.00;99572.38;2041650;29;20198;-74
2021/09/22 02:36:32;;;;;;;26.05;23.92;;;;;;;7.83;100.00;99575.84;2052159;28;20564;-75
2021/09/22 02:37:43;;;;;;;25.00;22.88;;;;;;;7.82;100.00;99573.47;2049693;29;20659;-74
2021/09/22 02:39:10;;;;;;;26.38;24.20;;;;;;;7.76;100.00;99571.84;2052515;28;20193;-74
2021/09/22 02:40:19;;;;;;;25.35;23.25;;;;;;;7.80;100.00;99576.34;2049396;29;20310;-74
2021/09/22 02:41:21;;;;;;;26.67;24.23;;;;;;;7.80;100.00;99575.56;2049367;29;20623;-75
2021/09/22 02:42:23;;;;;;;25.98;23.83;;;;;;;7.81;100.00;99571.84;2048743;29;20206;-74
2021/09/22 02:43:24;;;;;;;25.55;23.38;;;;;;;7.76;100.00;99570.00;2041379;29;20209;-75
2021/09/22 02:44:26;;;;;;;25.85;23.88;;;;;;;7.75;100.00;99571.06;2041359;29;20199;-75
2021/09/22 02:45:27;;;;;;;26.73;24.63;;;;;;;7.71;100.00;99562.00;2049511;28;20205;-74
2021/09/22 02:46:30;;;;;;;26.27;24.27;;;;;;;7.72;100.00;99558.28;2058123;28;20190;-75
2021/09/22 02:47:35;;;;;;;24.73;22.83;;;;;;;7.69;100.00;99553.50;2049333;29;20676;-75
2021/09/22 02:48:38;;;;;;;24.63;22.58;;;;;;;7.68;100.00;99551.13;2049314;29;20200;-75
2021/09/22 02:49:38;;;;;;;24.73;22.63;;;;;;;7.64;100.00;99548.19;2049412;28;20725;-75
2021/09/22 02:50:44;;;;;;;25.25;22.85;;;;;;;7.61;100.00;99554.84;2049250;29;20724;-75
2021/09/22 02:51:47;;;;;;;23.90;21.85;;;;;;;7.58;100.00;99549.25;2049780;28;20294;-75
2021/09/22 02:52:49;;;;;;;25.15;23.13;;;;;;;7.55;100.00;99545.25;2057889;28;20186;-75
2021/09/22 02:53:52;;;;;;;25.08;22.85;;;;;;;7.53;100.00;99542.06;2048952;29;20206;-75
2021/09/22 02:54:56;;;;;;;24.73;22.60;;;;;;;7.54;100.00;99540.22;2041754;29;20226;-75
2021/09/22 02:55:59;;;;;;;24.35;22.38;;;;;;;7.50;100.00;99534.66;2041968;29;20195;-75
2021/09/22 02:57:01;;;;;;;24.73;22.63;;;;;;;7.49;100.00;99542.88;2041309;29;20262;-75
2021/09/22 02:58:02;;;;;;;25.80;23.70;;;;;;;7.46;100.00;99532.75;2041319;29;20206;-75
2021/09/22 02:59:06;;;;;;;25.05;22.75;;;;;;;7.47;100.00;99534.34;2041534;29;20294;-75
2021/09/22 03:00:09;;;;;;;25.77;23.63;;;;;;;7.45;100.00;99531.19;2049157;29;20230;-75
2021/09/22 03:01:11;;;;;;;26.90;24.75;;;;;;;7.45;100.00;99536.47;2049220;29;20190;-75
2021/09/22 03:02:15;;;;;;;25.92;23.33;;;;;;;7.44;100.00;99533.03;2041963;29;20289;-75
2021/09/22 03:03:18;;;;;;;26.08;23.88;;;;;;;7.45;100.00;99536.47;2048447;28;20202;-75
2021/09/22 03:04:19;;;;;;;24.92;22.83;;;;;;;7.44;100.00;99542.84;2049171;29;20203;-75
2021/09/22 03:05:21;;;;;;;24.17;22.17;;;;;;;7.45;100.00;99542.59;2041408;29;20238;-75
2021/09/22 03:06:22;;;;;;;24.90;22.80;;;;;;;7.46;100.00;99544.19;2049151;29;20206;-75
2021/09/22 03:07:24;;;;;;;25.17;22.92;;;;;;;7.49;100.00;99542.88;2049160;29;20289;-75
2021/09/22 03:08:28;;;;;;;24.75;22.65;;;;;;;7.49;100.00;99542.88;2049680;28;20201;-75
2021/09/22 03:09:30;;;;;;;25.02;23.02;;;;;;;7.48;100.00;99535.97;2049225;29;20202;-75
2021/09/22 03:10:32;;;;;;;26.98;24.73;;;;;;;7.46;100.00;99544.19;2041452;29;20203;-75
2021/09/22 03:11:34;;;;;;;26.15;23.90;;;;;;;7.46;100.00;99541.53;2049248;28;20700;-75
2021/09/22 03:12:35;;;;;;;25.23;23.13;;;;;;;7.43;100.00;99539.41;2057774;28;20200;-75
2021/09/22 03:13:38;;;;;;;24.57;22.53;;;;;;;7.43;100.00;99543.91;2057798;28;20281;-75
2021/09/22 03:14:40;;;;;;;25.83;23.63;;;;;;;7.41;100.00;99541.53;2057973;28;20248;-75
2021/09/22 03:15:44;;;;;;;24.60;22.52;;;;;;;7.43;100.00;99535.97;2049116;29;20202;-75
2021/09/22 03:16:46;;;;;;;25.15;23.00;;;;;;;7.43;100.00;99534.09;2049809;28;20273;-75
2021/09/22 03:17:47;;;;;;;26.30;24.02;;;;;;;7.44;100.00;99537.53;2049092;29;20199;-75
2021/09/22 03:18:49;;;;;;;23.60;21.67;;;;;;;7.44;100.00;99530.38;2041147;29;20205;-75
2021/09/22 03:19:50;;;;;;;24.85;22.65;;;;;;;7.42;100.00;99531.72;2049295;29;20677;-75
2021/09/22 03:20:53;;;;;;;25.13;23.05;;;;;;;7.42;100.00;99532.50;2041226;29;20198;-75
2021/09/22 03:21:56;;;;;;;23.90;22.10;;;;;;;7.42;100.00;99537.81;2041390;29;20230;-75
2021/09/22 03:23:19;;;;;;;25.92;23.80;;;;;;;7.42;100.00;99537.03;2044067;29;20194;-75
2021/09/22 03:24:26;;;;;;;27.38;25.20;;;;;;;7.40;100.00;99533.84;2049140;29;20205;-75
2021/09/22 03:25:28;;;;;;;25.63;23.42;;;;;;;7.38;100.00;99520.81;2049256;28;20712;-75
2021/09/22 03:26:31;;;;;;;25.40;23.10;;;;;;;7.35;100.00;99524.78;2049140;29;20681;-75
2021/09/22 03:27:33;;;;;;;26.65;24.45;;;;;;;7.39;100.00;99532.25;2049109;29;20288;-75
2021/09/22 03:28:35;;;;;;;25.42;23.13;;;;;;;7.39;100.00;99529.59;2049117;29;20329;-75
2021/09/22 03:29:37;;;;;;;26.35;23.95;;;;;;;7.35;100.00;99527.44;2041303;29;20203;-75
2021/09/22 03:30:39;;;;;;;25.77;23.48;;;;;;;7.37;100.00;99535.94;2048757;29;20289;-75
2021/09/22 03:31:49;;;;;;;24.38;22.38;;;;;;;7.34;100.00;99525.84;2042262;29;20225;-74
2021/09/22 03:32:50;;;;;;;25.42;23.30;;;;;;;7.35;100.00;99526.66;2041189;29;20559;-75
2021/09/22 03:33:52;;;;;;;27.70;25.30;;;;;;;7.36;100.00;99528.25;2049088;29;20285;-75
2021/09/22 03:34:53;;;;;;;25.45;23.23;;;;;;;7.35;100.00;99530.09;2041302;29;20238;-75
2021/09/22 03:35:54;;;;;;;26.43;23.93;;;;;;;7.34;100.00;99523.19;2041071;29;20203;-75
2021/09/22 03:36:59;;;;;;;25.58;23.27;;;;;;;7.33;100.00;99518.97;2041045;29;20302;-75
2021/09/22 03:38:00;;;;;;;25.00;22.60;;;;;;;7.35;100.00;99531.97;2041549;29;20199;-75
2021/09/22 03:39:02;;;;;;;25.83;23.40;;;;;;;7.35;100.00;99527.44;2049028;29;20196;-75
2021/09/22 03:40:05;;;;;;;25.73;23.40;;;;;;;7.34;100.00;99533.03;2041284;29;20222;-75
2021/09/22 03:41:07;;;;;;;25.88;23.40;;;;;;;7.39;100.00;99529.59;2049049;29;20198;-75
2021/09/22 03:42:09;;;;;;;25.42;22.98;;;;;;;7.37;100.00;99532.50;2041146;29;20203;-75
2021/09/22 03:43:11;;;;;;;25.35;23.08;;;;;;;7.36;100.00;99530.91;2049529;28;20186;-75
2021/09/22 03:44:12;;;;;;;25.77;23.65;;;;;;;7.40;100.00;99528.53;2057615;28;20201;-75
2021/09/22 03:45:17;;;;;;;27.20;24.70;;;;;;;7.38;100.00;99531.41;2049154;29;20245;-75
2021/09/22 03:46:18;;;;;;;26.10;23.73;;;;;;;7.37;100.00;99524.53;2049162;28;20194;-75
2021/09/22 03:47:19;;;;;;;26.33;23.73;;;;;;;7.40;100.00;99528.53;2049153;29;20190;-75
2021/09/22 03:48:20;;;;;;;26.17;23.60;;;;;;;7.37;100.00;99525.31;2041229;29;20199;-75
2021/09/22 03:49:23;;;;;;;24.43;22.30;;;;;;;7.33;100.00;99526.91;2049148;28;20233;-75
2021/09/22 03:50:24;;;;;;;25.40;23.10;;;;;;;7.32;100.00;99525.31;2049003;29;20193;-75
2021/09/22 03:51:52;;;;;;;25.17;22.90;;;;;;;7.32;100.00;99517.38;2051689;28;20248;-75
2021/09/22 03:52:52;;;;;;;25.52;23.30;;;;;;;7.30;100.00;99518.69;2049067;29;20690;-75
2021/09/22 03:53:54;;;;;;;25.03;23.03;;;;;;;7.30;100.00;99518.69;2049006;29;20351;-75
2021/09/22 03:54:55;;;;;;;24.85;22.52;;;;;;;7.32;100.00;99520.03;2048995;29;20261;-75
2021/09/22 03:55:57;;;;;;;24.50;22.03;;;;;;;7.30;100.00;99519.50;2049274;29;20191;-75
2021/09/22 03:56:58;;;;;;;24.55;22.38;;;;;;;7.31;100.00;99522.94;2057615;28;20253;-75
2021/09/22 03:58:01;;;;;;;25.50;23.07;;;;;;;7.35;100.00;99527.44;2048951;28;20235;-75
2021/09/22 03:59:02;;;;;;;24.60;22.50;;;;;;;7.32;100.00;99524.53;2048994;29;20230;-75
2021/09/22 04:00:06;;;;;;;23.57;21.47;;;;;;;7.30;100.00;99519.50;2048804;29;20713;-74
2021/09/22 04:01:15;;;;;;;25.02;22.75;;;;;;;7.34;100.00;99531.16;2050385;28;20402;-75
2021/09/22 04:02:18;;;;;;;23.55;21.40;;;;;;;7.32;100.00;99530.63;2048979;29;20649;-75
2021/09/22 04:03:19;;;;;;;22.60;20.65;;;;;;;7.30;100.00;99530.09;2048682;29;20210;-74
2021/09/22 04:04:23;;;;;;;24.58;22.38;;;;;;;7.28;100.00;99534.06;2049064;29;20257;-74
2021/09/22 04:05:24;;;;;;;23.35;21.30;;;;;;;7.29;100.00;99528.50;2041449;29;20681;-75
2021/09/22 04:06:25;;;;;;;24.40;22.10;;;;;;;7.30;100.00;99530.09;2048936;29;20595;-75
2021/09/22 04:07:26;;;;;;;24.05;21.95;;;;;;;7.29;100.00;99533.78;2048699;29;20677;-75
2021/09/22 04:08:28;;;;;;;24.13;21.90;;;;;;;7.29;100.00;99531.13;2041117;29;20550;-75
2021/09/22 04:09:29;;;;;;;22.05;20.10;;;;;;;7.29;100.00;99531.13;2049040;28;20592;-75
2021/09/22 04:10:31;;;;;;;22.60;20.60;;;;;;;7.28;100.00;99529.56;2049292;28;20207;-75
2021/09/22 04:11:33;;;;;;;23.90;21.77;;;;;;;7.29;100.00;99528.50;2042219;29;20251;-74
2021/09/22 04:12:34;;;;;;;22.48;20.58;;;;;;;7.34;100.00;99525.84;2050745;28;20201;-74
2021/09/22 04:13:37;;;;;;;22.90;20.85;;;;;;;7.35;100.00;99521.34;2050364;29;20226;-74
2021/09/22 04:14:38;;;;;;;22.73;20.80;;;;;;;7.32;100.00;99521.88;2042560;29;20286;-75
2021/09/22 04:15:40;;;;;;;24.53;22.53;;;;;;;7.29;100.00;99515.22;2050320;29;20202;-74
2021/09/22 04:16:42;;;;;;;22.13;20.23;;;;;;;7.27;100.00;99514.69;2042771;29;20375;-74
2021/09/22 04:17:44;;;;;;;22.97;20.97;;;;;;;7.32;100.00;99520.03;2050422;29;20194;-74
2021/09/22 04:18:46;;;;;;;23.25;21.17;;;;;;;7.29;100.00;99517.88;2050666;28;20629;-75
2021/09/22 04:19:47;;;;;;;21.60;19.90;;;;;;;7.29;100.00;99520.53;2050281;29;20229;-74
2021/09/22 04:20:49;;;;;;;22.80;20.90;;;;;;;7.29;100.00;99520.53;2050393;29;20617;-74
2021/09/22 04:21:51;;;;;;;21.83;20.13;;;;;;;7.29;100.00;99528.50;2050338;28;20534;-74
2021/09/22 04:22:52;;;;;;;22.90;20.90;;;;;;;7.29;100.00;99519.72;2050420;28;20274;-74
2021/09/22 04:23:54;;;;;;;22.10;20.30;;;;;;;7.30;100.00;99514.19;2050328;29;20202;-74
2021/09/22 04:24:59;;;;;;;23.67;21.50;;;;;;;7.35;100.00;99521.34;2050294;29;20277;-74
2021/09/22 04:26:02;;;;;;;24.15;21.85;;;;;;;7.33;100.00;99521.59;2043003;29;20191;-74
2021/09/22 04:27:04;;;;;;;23.65;21.38;;;;;;;7.34;100.00;99523.19;2050257;29;20202;-74
2021/09/22 04:28:20;;;;;;;21.85;20.00;;;;;;;7.30;100.00;99519.50;2044260;29;20194;-74
2021/09/22 04:29:42;;;;;;;22.73;20.73;;;;;;;7.35;100.00;99526.66;2053105;28;20603;-74
2021/09/22 04:31:05;;;;;;;22.23;20.42;;;;;;;7.33;100.00;99532.22;2059203;28;20272;-74
2021/09/22 04:32:24;;;;;;;22.83;20.58;;;;;;;7.30;100.00;99530.09;2059002;28;20572;-74
2021/09/22 04:33:45;;;;;;;23.60;21.70;;;;;;;7.34;100.00;99533.03;2059197;28;20182;-74
2021/09/22 04:35:06;;;;;;;23.63;21.45;;;;;;;7.33;100.00;99528.78;2058995;28;20624;-74
2021/09/22 04:36:26;;;;;;;23.92;22.02;;;;;;;7.30;100.00;99529.31;2059004;28;20174;-74
2021/09/22 04:37:53;;;;;;;23.50;21.50;;;;;;;7.33;100.00;99532.22;2059139;28;20185;-74
2021/09/22 04:39:16;;;;;;;22.70;20.70;;;;;;;7.33;100.00;99524.25;2059289;28;20182;-75
2021/09/22 04:40:36;;;;;;;22.63;20.75;;;;;;;7.34;100.00;99523.19;2059151;28;20202;-74
2021/09/22 04:41:57;;;;;;;22.40;20.40;;;;;;;7.31;100.00;99525.59;2058991;28;20216;-74
2021/09/22 04:43:17;;;;;;;23.08;20.95;;;;;;;7.31;100.00;99521.09;2058958;28;20182;-74
2021/09/22 04:45:01;;;;;;;23.20;21.00;;;;;;;7.35;100.00;99526.66;2034227;29;20203;-74
2021/09/22 04:46:22;;;;;;;22.40;20.50;;;;;;;7.32;100.00;99522.69;2034465;29;20266;-74
2021/09/22 04:47:42;;;;;;;22.15;20.35;;;;;;;7.35;100.00;99527.44;2054604;28;20205;-74
2021/09/22 04:49:01;;;;;;;23.67;21.77;;;;;;;7.35;100.00;99524.78;2059173;28;20182;-75
2021/09/22 04:50:22;;;;;;;22.42;20.33;;;;;;;7.37;100.00;99525.31;2059018;28;20174;-74
2021/09/22 04:51:43;;;;;;;22.70;20.83;;;;;;;7.35;100.00;99522.13;2059097;28;20181;-75
2021/09/22 04:53:03;;;;;;;22.92;21.10;;;;;;;7.35;100.00;99527.44;2058719;28;20593;-74
2021/09/22 04:54:25;;;;;;;22.42;20.35;;;;;;;7.33;100.00;99534.88;2058959;28;20190;-74
2021/09/22 04:55:44;;;;;;;22.25;20.35;;;;;;;7.35;100.00;99531.97;2058920;28;20178;-74
2021/09/22 04:57:04;;;;;;;21.83;19.92;;;;;;;7.35;100.00;99532.75;2059007;28;20213;-75
2021/09/22 04:58:26;;;;;;;20.48;18.85;;;;;;;7.39;100.00;99532.25;2058841;28;20225;-74
2021/09/22 04:59:46;;;;;;;21.02;19.27;;;;;;;7.38;100.00;99536.72;2058491;28;20229;-75
2021/09/22 05:01:08;;;;;;;21.17;19.38;;;;;;;7.40;100.00;99537.28;2058956;28;20178;-75